Symphony Classica — JG4838 — position and weather

sailwx.info

Track history (hours):
 
Tides and Currents Weather Stations Pressure Air Temp Water Temp Dewpoint Dewpoint Depression Visibility Wind Speed Wind Dir Waves Ship Positions

Symphony Classica

Last reported at 2017-Nov-19 23:58 UTC. Time now 2017-Nov-20 00:26 UTC.
Position N 35°39' E 139°46'.

Length 70 m; draft 2.5 m.

Type: Passenger vessel. MMSI: 431000425.

Date/timePositionNaut miles runAvg speedWind from/ knotsBaromVisibWave heightAir tempDewpointWater temp
2017-Nov-19 23:58N 35°39' E 139°46'0 0.0
2017-Nov-19 23:27N 35°39' E 139°46'0 0.0
2017-Nov-19 23:01N 35°39' E 139°46'0 0.0
2017-Nov-19 22:28N 35°39' E 139°46'0 0.0
2017-Nov-19 22:01N 35°39' E 139°46'0 0.0
2017-Nov-19 21:31N 35°39' E 139°46'0 0.0
2017-Nov-19 20:55N 35°39' E 139°46'0 0.0
2017-Nov-19 20:31N 35°39' E 139°46'0 0.0
2017-Nov-19 20:00N 35°39' E 139°46'0 0.0
2017-Nov-19 19:30N 35°39' E 139°46'0 0.0
2017-Nov-19 19:00N 35°39' E 139°46'0 0.0
2017-Nov-19 18:28N 35°39' E 139°46'0 0.0
2017-Nov-19 17:58N 35°39' E 139°46'0 0.0
2017-Nov-19 17:27N 35°39' E 139°46'0 0.0
2017-Nov-19 16:58N 35°39' E 139°46'0 0.0
2017-Nov-19 16:31N 35°39' E 139°46'0 0.0
2017-Nov-19 15:58N 35°39' E 139°46'0 0.0
2017-Nov-19 15:31N 35°39' E 139°46'0 0.0
2017-Nov-19 15:01N 35°39' E 139°46'0 0.0
2017-Nov-19 14:31N 35°39' E 139°46'0 0.0
2017-Nov-19 14:01N 35°39' E 139°46'0 0.0
2017-Nov-19 13:28N 35°39' E 139°46'0 0.0
2017-Nov-19 12:55N 35°39' E 139°46'0 0.0
2017-Nov-19 12:28N 35°39' E 139°46'1 1.3
2017-Nov-19 12:01N 35°39' E 139°46'3 6.5
2017-Nov-19 11:30N 35°35' E 139°47'3 6.8
2017-Nov-19 11:00N 35°35' E 139°51'4 7.1
2017-Nov-19 10:30N 35°36' E 139°47'3 6.5
2017-Nov-19 10:00N 35°39' E 139°46'0 0.0
2017-Nov-19 09:30N 35°39' E 139°46'1 1.5
2017-Nov-19 09:01N 35°38' E 139°46'5 9.5
2017-Nov-19 08:30N 35°34' E 139°49'3 5.4
2017-Nov-19 08:01N 35°37' E 139°49'3 6.0
2017-Nov-19 07:30N 35°39' E 139°46'0 0.7
2017-Nov-19 07:00N 35°39' E 139°46'1 1.2
2017-Nov-19 06:30N 35°39' E 139°46'1 1.2
2017-Nov-19 06:00N 35°39' E 139°46'0 0.0
2017-Nov-19 05:20N 35°39' E 139°46'0 0.0
2017-Nov-19 04:57N 35°39' E 139°46'1 2.0
2017-Nov-19 04:30N 35°38' E 139°46'5 9.3
2017-Nov-19 04:00N 35°34' E 139°49'3 5.3
2017-Nov-19 03:30N 35°37' E 139°48'3 5.3
2017-Nov-19 03:00N 35°39' E 139°46'0 0.2
2017-Nov-19 00:07N 35°39' E 139°46'0 0.0
2017-Nov-18 23:58N 35°39' E 139°46'0 0.0
2017-Nov-18 23:25N 35°39' E 139°46'0 0.0
2017-Nov-18 12:15N 35°39' E 139°46'1 2.1
2017-Nov-18 12:00N 35°38' E 139°46'3 6.9
2017-Nov-18 11:30N 35°35' E 139°47'3 6.7
2017-Nov-18 11:00N 35°35' E 139°51'4 6.8
2017-Nov-18 10:29N 35°36' E 139°47'3 2.0
2017-Nov-18 09:06N 35°38' E 139°46'1 8.4
2017-Nov-18 09:00N 35°38' E 139°46'4 8.0
2017-Nov-18 08:30N 35°34' E 139°49'3 5.0
2017-Nov-18 08:00N 35°37' E 139°49'3 5.7
2017-Nov-18 07:28N 35°39' E 139°46'0 0.4
2017-Nov-18 06:33N 35°39' E 139°46'0 6.0
2017-Nov-18 06:29N 35°38' E 139°46'1 0.5
2017-Nov-18 04:52N 35°39' E 139°46'2 5.8
2017-Nov-18 04:30N 35°37' E 139°46'4 8.5
2017-Nov-18 04:00N 35°33' E 139°49'3 6.9
2017-Nov-18 03:30N 35°37' E 139°49'3 6.2
2017-Nov-18 03:00N 35°38' E 139°46'0 0.0
2017-Nov-17 12:16N 35°39' E 139°46'1 3.2
2017-Nov-17 11:59N 35°38' E 139°46'3 7.2
2017-Nov-17 11:30N 35°35' E 139°48'3 5.1
2017-Nov-17 11:00N 35°35' E 139°51'3 6.4
2017-Nov-17 10:30N 35°36' E 139°47'3 0.5
2017-Nov-17 04:42N 35°39' E 139°46'2 6.1
2017-Nov-17 04:26N 35°37' E 139°46'4 9.2
2017-Nov-17 04:00N 35°34' E 139°49'2 3.3
2017-Nov-17 03:17N 35°36' E 139°47'3 0.2
2017-Nov-16 09:07N 35°39' E 139°46'1 6.6
2017-Nov-16 09:00N 35°38' E 139°46'4 8.9
2017-Nov-16 08:30N 35°34' E 139°49'2 3.3
2017-Nov-16 07:53N 35°36' E 139°47'3 2.0
2017-Nov-16 06:32N 35°38' E 139°46'0 4.2
2017-Nov-16 06:30N 35°38' E 139°46'0 0.2
2017-Nov-16 04:45N 35°39' E 139°46'2 8.2
2017-Nov-16 04:29N 35°37' E 139°46'4 7.7
2017-Nov-16 03:58N 35°34' E 139°50'3 4.9
2017-Nov-16 03:20N 35°36' E 139°47'3 0.2
2017-Nov-15 12:15N 35°39' E 139°46'1 3.2
2017-Nov-15 12:00N 35°38' E 139°46'4 8.1
2017-Nov-15 11:30N 35°35' E 139°49'2 4.1
2017-Nov-15 10:57N 35°37' E 139°49'3 5.5
2017-Nov-15 10:28N 35°37' E 139°46'2 0.3
2017-Nov-15 04:40N 35°38' E 139°46'1 6.2
2017-Nov-15 04:30N 35°37' E 139°46'5 9.8
2017-Nov-15 04:01N 35°34' E 139°50'3 4.4
2017-Nov-15 03:20N 35°36' E 139°47'3 0.2
2017-Nov-14 12:21N 35°39' E 139°46'1 2.4
2017-Nov-14 12:00N 35°38' E 139°46'5 9.7
2017-Nov-14 11:30N 35°34' E 139°49'3 5.7
2017-Nov-14 11:00N 35°36' E 139°52'4 6.7
2017-Nov-14 10:27N 35°36' E 139°47'3 0.5
2017-Nov-14 04:46N 35°39' E 139°46'2 5.7
2017-Nov-14 04:28N 35°37' E 139°46'4 8.5
2017-Nov-14 04:00N 35°34' E 139°49'3 5.2
2017-Nov-14 03:29N 35°37' E 139°49'3 6.7
2017-Nov-14 02:59N 35°38' E 139°46'0 0.0
2017-Nov-12 12:17N 35°39' E 139°46'1 2.9
2017-Nov-12 11:59N 35°38' E 139°46'5 9.7
2017-Nov-12 11:30N 35°34' E 139°49'3 5.2
2017-Nov-12 10:59N 35°36' E 139°52'4 7.8
2017-Nov-12 10:29N 35°36' E 139°47'3 2.3
2017-Nov-12 09:09N 35°39' E 139°46'0 3.0
2017-Nov-12 09:00N 35°38' E 139°46'4 7.8
2017-Nov-12 08:29N 35°35' E 139°48'2 4.4
2017-Nov-12 07:59N 35°37' E 139°49'3 2.5
2017-Nov-12 06:37N 35°39' E 139°46'0 2.9
2017-Nov-12 06:30N 35°38' E 139°46'0 0.2
2017-Nov-12 04:46N 35°39' E 139°46'2 5.3
2017-Nov-12 04:28N 35°37' E 139°46'4 8.6
2017-Nov-12 04:00N 35°34' E 139°49'3 5.2
2017-Nov-12 03:30N 35°37' E 139°49'4 0.2
2017-Nov-11 12:18N 35°39' E 139°46'2 4.8
2017-Nov-11 11:56N 35°37' E 139°46'4 8.5
2017-Nov-11 11:30N 35°34' E 139°49'2 4.3
2017-Nov-11 10:59N 35°35' E 139°51'4 6.6
2017-Nov-11 10:27N 35°36' E 139°47'3 2.3
2017-Nov-11 09:04N 35°39' E 139°46'1 8.0
2017-Nov-11 09:00N 35°38' E 139°46'4 7.1
2017-Nov-11 08:30N 35°35' E 139°48'3 5.4
2017-Nov-11 08:00N 35°35' E 139°51'4 5.7
2017-Nov-11 07:23N 35°36' E 139°47'3 1.2
2017-Nov-11 04:50N 35°39' E 139°46'2 4.4
2017-Nov-11 04:28N 35°37' E 139°46'4 8.4
2017-Nov-11 04:00N 35°34' E 139°49'2 3.4
2017-Nov-11 03:16N 35°36' E 139°47'3 9.7
2017-Nov-11 02:59N 35°38' E 139°46'1 0.0
2017-Nov-10 12:15N 35°39' E 139°46'1 3.8
2017-Nov-10 12:00N 35°38' E 139°46'4 7.9
2017-Nov-10 11:30N 35°35' E 139°48'2 4.0
2017-Nov-10 10:57N 35°36' E 139°50'4 6.6
2017-Nov-10 10:23N 35°37' E 139°46'2 1.5
2017-Nov-10 09:04N 35°39' E 139°46'1 6.5
2017-Nov-10 08:57N 35°38' E 139°46'4 8.7
2017-Nov-10 08:30N 35°35' E 139°48'2 4.8
2017-Nov-10 08:01N 35°37' E 139°49'3 6.6
2017-Nov-10 07:29N 35°39' E 139°46'0 0.1
2017-Nov-10 06:37N 35°39' E 139°46'0 3.7
2017-Nov-10 06:30N 35°39' E 139°46'0 0.2
2017-Nov-10 04:45N 35°39' E 139°46'2 7.9
2017-Nov-10 04:29N 35°37' E 139°46'4 7.7
2017-Nov-10 04:00N 35°34' E 139°49'2 3.3
2017-Nov-10 03:16N 35°36' E 139°47'3 9.9
2017-Nov-10 02:59N 35°38' E 139°46'  
Track history (hours):
 
Tides and Currents Weather Stations Pressure Air Temp Water Temp Dewpoint Dewpoint Depression Visibility Wind Speed Wind Dir Waves Ship Positions

Symphony Classica

Last reported at 2017-Nov-19 23:58 UTC. Time now 2017-Nov-20 00:26 UTC.
Position N 35°39' E 139°46'.

Length 70 m; draft 2.5 m.

Type: Passenger vessel. MMSI: 431000425.

Date/timePositionNaut miles runAvg speedWind from/ knotsBaromVisibWave heightAir tempDewpointWater temp
2017-Nov-19 23:58N 35°39' E 139°46'0 0.0
2017-Nov-19 23:27N 35°39' E 139°46'0 0.0
2017-Nov-19 23:01N 35°39' E 139°46'0 0.0
2017-Nov-19 22:28N 35°39' E 139°46'0 0.0
2017-Nov-19 22:01N 35°39' E 139°46'0 0.0
2017-Nov-19 21:31N 35°39' E 139°46'0 0.0
2017-Nov-19 20:55N 35°39' E 139°46'0 0.0
2017-Nov-19 20:31N 35°39' E 139°46'0 0.0
2017-Nov-19 20:00N 35°39' E 139°46'0 0.0
2017-Nov-19 19:30N 35°39' E 139°46'0 0.0
2017-Nov-19 19:00N 35°39' E 139°46'0 0.0
2017-Nov-19 18:28N 35°39' E 139°46'0 0.0
2017-Nov-19 17:58N 35°39' E 139°46'0 0.0
2017-Nov-19 17:27N 35°39' E 139°46'0 0.0
2017-Nov-19 16:58N 35°39' E 139°46'0 0.0
2017-Nov-19 16:31N 35°39' E 139°46'0 0.0
2017-Nov-19 15:58N 35°39' E 139°46'0 0.0
2017-Nov-19 15:31N 35°39' E 139°46'0 0.0
2017-Nov-19 15:01N 35°39' E 139°46'0 0.0
2017-Nov-19 14:31N 35°39' E 139°46'0 0.0
2017-Nov-19 14:01N 35°39' E 139°46'0 0.0
2017-Nov-19 13:28N 35°39' E 139°46'0 0.0
2017-Nov-19 12:55N 35°39' E 139°46'0 0.0
2017-Nov-19 12:28N 35°39' E 139°46'1 1.3
2017-Nov-19 12:01N 35°39' E 139°46'3 6.5
2017-Nov-19 11:30N 35°35' E 139°47'3 6.8
2017-Nov-19 11:00N 35°35' E 139°51'4 7.1
2017-Nov-19 10:30N 35°36' E 139°47'3 6.5
2017-Nov-19 10:00N 35°39' E 139°46'0 0.0
2017-Nov-19 09:30N 35°39' E 139°46'1 1.5
2017-Nov-19 09:01N 35°38' E 139°46'5 9.5
2017-Nov-19 08:30N 35°34' E 139°49'3 5.4
2017-Nov-19 08:01N 35°37' E 139°49'3 6.0
2017-Nov-19 07:30N 35°39' E 139°46'0 0.7
2017-Nov-19 07:00N 35°39' E 139°46'1 1.2
2017-Nov-19 06:30N 35°39' E 139°46'1 1.2
2017-Nov-19 06:00N 35°39' E 139°46'0 0.0
2017-Nov-19 05:20N 35°39' E 139°46'0 0.0
2017-Nov-19 04:57N 35°39' E 139°46'1 2.0
2017-Nov-19 04:30N 35°38' E 139°46'5 9.3
2017-Nov-19 04:00N 35°34' E 139°49'3 5.3
2017-Nov-19 03:30N 35°37' E 139°48'3 5.3
2017-Nov-19 03:00N 35°39' E 139°46'0 0.2
2017-Nov-19 00:07N 35°39' E 139°46'0 0.0
2017-Nov-18 23:58N 35°39' E 139°46'0 0.0
2017-Nov-18 23:25N 35°39' E 139°46'0 0.0
2017-Nov-18 12:15N 35°39' E 139°46'1 2.1
2017-Nov-18 12:00N 35°38' E 139°46'3 6.9
2017-Nov-18 11:30N 35°35' E 139°47'3 6.7
2017-Nov-18 11:00N 35°35' E 139°51'4 6.8
2017-Nov-18 10:29N 35°36' E 139°47'3 2.0
2017-Nov-18 09:06N 35°38' E 139°46'1 8.4
2017-Nov-18 09:00N 35°38' E 139°46'4 8.0
2017-Nov-18 08:30N 35°34' E 139°49'3 5.0
2017-Nov-18 08:00N 35°37' E 139°49'3 5.7
2017-Nov-18 07:28N 35°39' E 139°46'0 0.4
2017-Nov-18 06:33N 35°39' E 139°46'0 6.0
2017-Nov-18 06:29N 35°38' E 139°46'1 0.5
2017-Nov-18 04:52N 35°39' E 139°46'2 5.8
2017-Nov-18 04:30N 35°37' E 139°46'4 8.5
2017-Nov-18 04:00N 35°33' E 139°49'3 6.9
2017-Nov-18 03:30N 35°37' E 139°49'3 6.2
2017-Nov-18 03:00N 35°38' E 139°46'0 0.0
2017-Nov-17 12:16N 35°39' E 139°46'1 3.2
2017-Nov-17 11:59N 35°38' E 139°46'3 7.2
2017-Nov-17 11:30N 35°35' E 139°48'3 5.1
2017-Nov-17 11:00N 35°35' E 139°51'3 6.4
2017-Nov-17 10:30N 35°36' E 139°47'3 0.5
2017-Nov-17 04:42N 35°39' E 139°46'2 6.1
2017-Nov-17 04:26N 35°37' E 139°46'4 9.2
2017-Nov-17 04:00N 35°34' E 139°49'2 3.3
2017-Nov-17 03:17N 35°36' E 139°47'3 0.2
2017-Nov-16 09:07N 35°39' E 139°46'1 6.6
2017-Nov-16 09:00N 35°38' E 139°46'4 8.9
2017-Nov-16 08:30N 35°34' E 139°49'2 3.3
2017-Nov-16 07:53N 35°36' E 139°47'3 2.0
2017-Nov-16 06:32N 35°38' E 139°46'0 4.2
2017-Nov-16 06:30N 35°38' E 139°46'0 0.2
2017-Nov-16 04:45N 35°39' E 139°46'2 8.2
2017-Nov-16 04:29N 35°37' E 139°46'4 7.7
2017-Nov-16 03:58N 35°34' E 139°50'3 4.9
2017-Nov-16 03:20N 35°36' E 139°47'3 0.2
2017-Nov-15 12:15N 35°39' E 139°46'1 3.2
2017-Nov-15 12:00N 35°38' E 139°46'4 8.1
2017-Nov-15 11:30N 35°35' E 139°49'2 4.1
2017-Nov-15 10:57N 35°37' E 139°49'3 5.5
2017-Nov-15 10:28N 35°37' E 139°46'2 0.3
2017-Nov-15 04:40N 35°38' E 139°46'1 6.2
2017-Nov-15 04:30N 35°37' E 139°46'5 9.8
2017-Nov-15 04:01N 35°34' E 139°50'3 4.4
2017-Nov-15 03:20N 35°36' E 139°47'3 0.2
2017-Nov-14 12:21N 35°39' E 139°46'1 2.4
2017-Nov-14 12:00N 35°38' E 139°46'5 9.7
2017-Nov-14 11:30N 35°34' E 139°49'3 5.7
2017-Nov-14 11:00N 35°36' E 139°52'4 6.7
2017-Nov-14 10:27N 35°36' E 139°47'3 0.5
2017-Nov-14 04:46N 35°39' E 139°46'2 5.7
2017-Nov-14 04:28N 35°37' E 139°46'4 8.5
2017-Nov-14 04:00N 35°34' E 139°49'3 5.2
2017-Nov-14 03:29N 35°37' E 139°49'3 6.7
2017-Nov-14 02:59N 35°38' E 139°46'0 0.0
2017-Nov-12 12:17N 35°39' E 139°46'1 2.9
2017-Nov-12 11:59N 35°38' E 139°46'5 9.7
2017-Nov-12 11:30N 35°34' E 139°49'3 5.2
2017-Nov-12 10:59N 35°36' E 139°52'4 7.8
2017-Nov-12 10:29N 35°36' E 139°47'3 2.3
2017-Nov-12 09:09N 35°39' E 139°46'0 3.0
2017-Nov-12 09:00N 35°38' E 139°46'4 7.8
2017-Nov-12 08:29N 35°35' E 139°48'2 4.4
2017-Nov-12 07:59N 35°37' E 139°49'3 2.5
2017-Nov-12 06:37N 35°39' E 139°46'0 2.9
2017-Nov-12 06:30N 35°38' E 139°46'0 0.2
2017-Nov-12 04:46N 35°39' E 139°46'2 5.3
2017-Nov-12 04:28N 35°37' E 139°46'4 8.6
2017-Nov-12 04:00N 35°34' E 139°49'3 5.2
2017-Nov-12 03:30N 35°37' E 139°49'4 0.2
2017-Nov-11 12:18N 35°39' E 139°46'2 4.8
2017-Nov-11 11:56N 35°37' E 139°46'4 8.5
2017-Nov-11 11:30N 35°34' E 139°49'2 4.3
2017-Nov-11 10:59N 35°35' E 139°51'4 6.6
2017-Nov-11 10:27N 35°36' E 139°47'3 2.3
2017-Nov-11 09:04N 35°39' E 139°46'1 8.0
2017-Nov-11 09:00N 35°38' E 139°46'4 7.1
2017-Nov-11 08:30N 35°35' E 139°48'3 5.4
2017-Nov-11 08:00N 35°35' E 139°51'4 5.7
2017-Nov-11 07:23N 35°36' E 139°47'3 1.2
2017-Nov-11 04:50N 35°39' E 139°46'2 4.4
2017-Nov-11 04:28N 35°37' E 139°46'4 8.4
2017-Nov-11 04:00N 35°34' E 139°49'2 3.4
2017-Nov-11 03:16N 35°36' E 139°47'3 9.7
2017-Nov-11 02:59N 35°38' E 139°46'1 0.0
2017-Nov-10 12:15N 35°39' E 139°46'1 3.8
2017-Nov-10 12:00N 35°38' E 139°46'4 7.9
2017-Nov-10 11:30N 35°35' E 139°48'2 4.0
2017-Nov-10 10:57N 35°36' E 139°50'4 6.6
2017-Nov-10 10:23N 35°37' E 139°46'2 1.5
2017-Nov-10 09:04N 35°39' E 139°46'1 6.5
2017-Nov-10 08:57N 35°38' E 139°46'4 8.7
2017-Nov-10 08:30N 35°35' E 139°48'2 4.8
2017-Nov-10 08:01N 35°37' E 139°49'3 6.6
2017-Nov-10 07:29N 35°39' E 139°46'0 0.1
2017-Nov-10 06:37N 35°39' E 139°46'0 3.7
2017-Nov-10 06:30N 35°39' E 139°46'0 0.2
2017-Nov-10 04:45N 35°39' E 139°46'2 7.9
2017-Nov-10 04:29N 35°37' E 139°46'4 7.7
2017-Nov-10 04:00N 35°34' E 139°49'2 3.3
2017-Nov-10 03:16N 35°36' E 139°47'3 9.9
2017-Nov-10 02:59N 35°38' E 139°46'  

Dump ship's entire track history